עמוד ראשי
METAR-TAF:

METAR-TAF

שדות תעופה :

נמל התעופה הבינלאומי ולדיווסטוק

ולדיווסטוק, רוסיה

קו רוחב: 43-07N, קו אורך: 131-56E, גובה: 184מטר

תצפית מזג אוויר נוכחית

הדו"ח נערך לפני 17דקות, בשעה 13:00 UTC
רוח 4קשר מכיוון דרום-מזרח
טמפרטורת 8 צלסיוס
לחות 81%
לחץ 1010 hPa
ראות 10 קילומטר או יותר

METAR: UHWW 171300Z 14002MPS 9999 NSC 08/05 Q1010 R25L/0///70 NOSIG RMK QFE757

זמן: 23:17 (13:17 UTC)

תחזית

הדו"ח נערך לפני 2 שעות ו 27דקות, בשעה 10:50 UTC
תחזית בתוקף מ 17 ב 12 UTC עד 18 ב 12 UTC
רוח 6קשר מכיוון מערב/דרום-מערב עם משבים עד 16קשר
ראות 10 קילומטר או יותר
יעשה מ
17 ב 13 UTC עד 17 ב 15 UTC
רוח 6קשר מכיוון מזרח
זמנית מ -
17 ב 15 UTC עד 17 ב 24 UTC
ראות: 0300מטר
בגובה 200רגל
ערפל
יעשה מ
18 ב 00 UTC עד 18 ב 03 UTC
רוח 6קשר מכיוון דרום-מערב עם משבים עד 16קשר

TAF: UHWW 171050Z 1712/1812 25003G08MPS 9999 NSC BECMG 1713/1715 08003MPS TEMPO 1715/1724 0300 FG VV002 BECMG 1800/1803 22003G08MPS

תצפיות ותחזיות מזג אוויר לגבי יותר מ- 4,000 שדות תעופה ברחבי העולם. דוחות METAR ו- TAF.

התחנות הזמינות מסומנות בנקודות צהובות ואדומות על גבי המפה.

העבר את העכבר לנקודה הצבעונית על מנת לראות את שם התחנה.

לאחר מכן, לחץ כדי לראות את תוכן ואת תחזיות מזג האוויר.

כדי לשנות את המפה: לחץ על הכפתורים הירוקים עם הפלוס השחור כדי להתקרב; על הכפתור הירוק עם המקף כדי להתרחק; או בחיצים הירוקים למפות סמוכות.


METAR-TAF: